Ferryhill, United Kingdom
Current Conditions -  °F | °C
As of 7:20 PM on Monday 22 Dec 2014 (Local Time) from EGNV Reporting Station
Scattered Clouds Scattered Clouds  
Wind Chill: 55°   Ceiling: Unl
Heat Index: 55°   Visibility: 6mi
Dew Point: 46°   Wind: 16mph
Humidity: 72%   Direction: 240°WSW
Pressure: 29.71"   Gusts: 28mph
Location:  54.68°N, 1.55°W
Report Text: EGNV 221920Z 24014G24KT 9999 FEW021 SCT028 13/08 Q1006
Loading
Personal Weather Stations






























Interactive Weather Map New forecast layout! Learn more

10-Day Weather Forecast

Advertisements
Track Severe Weather on mobile